createdAt,value
2017-04-24T00:00:01.551Z,9
2017-04-24T00:05:01.432Z,9
2017-04-24T00:10:01.223Z,9
2017-04-24T00:15:02.127Z,9
2017-04-24T00:20:01.893Z,9
2017-04-24T00:25:01.751Z,9.1
2017-04-24T00:30:01.586Z,9
2017-04-24T00:35:01.290Z,9
2017-04-24T00:40:01.527Z,9
2017-04-24T00:45:01.536Z,9.1
2017-04-24T00:50:01.334Z,9
2017-04-24T00:55:01.998Z,9
2017-04-24T01:00:01.799Z,9
2017-04-24T01:05:01.849Z,9
2017-04-24T01:10:01.549Z,9
2017-04-24T01:15:01.446Z,9
2017-04-24T01:20:01.265Z,9
2017-04-24T01:25:01.318Z,9
2017-04-24T01:30:02.068Z,9
2017-04-24T01:35:01.592Z,9
2017-04-24T01:40:01.198Z,9.1
2017-04-24T01:45:02.053Z,9.1
2017-04-24T01:50:01.849Z,9.1
2017-04-24T01:55:01.571Z,9.1
2017-04-24T02:00:01.756Z,9.1
2017-04-24T02:05:01.719Z,9.1
2017-04-24T02:10:01.600Z,9.1
2017-04-24T02:15:01.898Z,9.1
2017-04-24T02:20:01.987Z,9.1
2017-04-24T02:25:01.833Z,9.1
2017-04-24T02:30:02.164Z,9.2
2017-04-24T02:35:02.207Z,9.2
2017-04-24T02:40:01.274Z,9.2
2017-04-24T02:45:01.378Z,9.2
2017-04-24T02:50:01.775Z,9.1
2017-04-24T02:55:01.525Z,9.1
2017-04-24T03:00:01.570Z,9.2
2017-04-24T03:05:01.528Z,9.1
2017-04-24T03:10:01.282Z,9.1
2017-04-24T03:15:01.360Z,9.1
2017-04-24T03:20:01.177Z,9.2
2017-04-24T03:25:02.161Z,9.2
2017-04-24T03:30:02.165Z,9.2
2017-04-24T03:35:02.001Z,9.2
2017-04-24T03:40:01.487Z,9.2
2017-04-24T03:45:01.798Z,9.2
2017-04-24T03:50:01.747Z,9.2
2017-04-24T03:55:02.109Z,9.2
2017-04-24T04:00:02.153Z,9.2
2017-04-24T04:05:01.165Z,9.2
2017-04-24T04:10:02.116Z,9.2
2017-04-24T04:15:01.756Z,9.2
2017-04-24T04:20:01.501Z,9.2
2017-04-24T04:25:01.884Z,9.2
2017-04-24T04:30:01.752Z,9.2
2017-04-24T04:35:01.730Z,9.2
2017-04-24T04:40:02.147Z,9.2
2017-04-24T04:45:02.013Z,9.2
2017-04-24T04:50:01.766Z,9.2
2017-04-24T04:55:01.456Z,9.2
2017-04-24T05:00:01.719Z,9.2
2017-04-24T05:05:01.905Z,9
2017-04-24T05:10:01.898Z,9.2
2017-04-24T05:15:01.225Z,9.1
2017-04-24T05:20:01.348Z,9.2
2017-04-24T05:25:01.914Z,9.2
2017-04-24T05:30:01.255Z,9.2
2017-04-24T05:35:01.447Z,9.2
2017-04-24T05:40:01.209Z,9.2
2017-04-24T05:45:01.827Z,9.2
2017-04-24T05:50:01.237Z,9.2
2017-04-24T05:55:01.818Z,9.3
2017-04-24T06:00:02.053Z,9.3
2017-04-24T06:05:01.611Z,9.4
2017-04-24T06:10:02.158Z,9.5
2017-04-24T06:15:01.551Z,9.4
2017-04-24T06:20:01.245Z,9.5
2017-04-24T06:25:01.296Z,9.5
2017-04-24T06:30:01.682Z,9.5
2017-04-24T06:35:01.441Z,9.5
2017-04-24T06:40:01.251Z,9.5
2017-04-24T06:45:01.898Z,9.5
2017-04-24T06:50:01.580Z,9.5
2017-04-24T06:55:01.294Z,9.5
2017-04-24T07:00:01.637Z,9.5
2017-04-24T07:05:01.725Z,9.6
2017-04-24T07:10:01.197Z,9.5
2017-04-24T07:15:02.060Z,9.6
2017-04-24T07:20:01.234Z,9.6
2017-04-24T07:25:01.586Z,9.7
2017-04-24T07:30:01.801Z,9.8
2017-04-24T07:35:01.600Z,9.8
2017-04-24T07:40:01.370Z,9.8
2017-04-24T07:45:01.980Z,9.9
2017-04-24T07:50:01.820Z,10
2017-04-24T07:55:01.288Z,10
2017-04-24T08:00:01.532Z,10
2017-04-24T08:05:02.037Z,10.2
2017-04-24T08:10:01.238Z,10.3
2017-04-24T08:15:01.719Z,10.3
2017-04-24T08:20:01.327Z,10.5
2017-04-24T08:25:01.408Z,10.6
2017-04-24T08:30:01.718Z,10.8
2017-04-24T08:35:01.878Z,10.7
2017-04-24T08:40:01.595Z,10.7
2017-04-24T08:45:01.263Z,10.8
2017-04-24T08:50:01.346Z,10.7
2017-04-24T08:55:02.033Z,10.8
2017-04-24T09:00:01.368Z,10.8
2017-04-24T09:05:02.043Z,10.8
2017-04-24T09:10:01.962Z,10.8
2017-04-24T09:15:01.758Z,10.9
2017-04-24T09:20:01.276Z,10.8
2017-04-24T09:25:01.642Z,10.8
2017-04-24T09:30:01.986Z,10.9
2017-04-24T09:35:02.096Z,11
2017-04-24T09:40:01.932Z,11.2
2017-04-24T09:45:01.727Z,11.2
2017-04-24T09:50:01.328Z,11.2
2017-04-24T09:55:01.190Z,11.3
2017-04-24T10:00:01.647Z,11.4
2017-04-24T10:05:01.394Z,11.5
2017-04-24T10:10:01.249Z,11.6
2017-04-24T10:15:01.284Z,11.7
2017-04-24T10:20:01.620Z,12
2017-04-24T10:25:01.867Z,12.1
2017-04-24T10:30:01.377Z,12.4
2017-04-24T10:35:02.175Z,12.5
2017-04-24T10:40:02.003Z,12.5
2017-04-24T10:45:01.718Z,12.4
2017-04-24T10:50:02.109Z,12.4
2017-04-24T10:55:01.770Z,12.4
2017-04-24T11:00:01.262Z,12.4
2017-04-24T11:05:01.773Z,12.2
2017-04-24T11:10:01.745Z,12.2
2017-04-24T11:15:01.193Z,12.2
2017-04-24T11:20:01.805Z,12.3
2017-04-24T11:25:02.019Z,12.5
2017-04-24T11:30:01.494Z,12.5
2017-04-24T11:35:01.382Z,12.8
2017-04-24T11:40:01.346Z,12.8
2017-04-24T11:45:01.968Z,12.8
2017-04-24T11:50:01.908Z,12.8
2017-04-24T11:55:01.541Z,12.6
2017-04-24T12:00:01.340Z,12.6
2017-04-24T12:05:01.313Z,12.4
2017-04-24T12:10:02.197Z,12.2
2017-04-24T12:15:01.674Z,12
2017-04-24T12:20:01.477Z,12
2017-04-24T12:25:01.463Z,11.9
2017-04-24T12:30:01.937Z,11.8
2017-04-24T12:35:02.118Z,11.8
2017-04-24T12:40:01.912Z,11.8
2017-04-24T12:45:01.985Z,11.8
2017-04-24T12:50:01.542Z,11.8
2017-04-24T12:55:02.111Z,11.6
2017-04-24T13:00:01.749Z,11.6
2017-04-24T13:05:02.118Z,11.7
2017-04-24T13:10:01.577Z,11.7
2017-04-24T13:15:01.913Z,11.9
2017-04-24T13:20:02.028Z,12
2017-04-24T13:25:01.365Z,12
2017-04-24T13:30:01.859Z,12.1
2017-04-24T13:35:02.210Z,12.1
2017-04-24T13:40:01.888Z,12.2
2017-04-24T13:45:01.644Z,12.3
2017-04-24T13:50:01.823Z,12.3
2017-04-24T13:55:01.969Z,12.4
2017-04-24T14:00:01.383Z,12.4
2017-04-24T14:05:01.866Z,12.4
2017-04-24T14:10:02.148Z,12.5
2017-04-24T14:15:01.448Z,12.6
2017-04-24T14:20:01.370Z,12.6
2017-04-24T14:25:01.453Z,12.6
2017-04-24T14:30:02.021Z,12.6
2017-04-24T14:35:01.565Z,12.6
2017-04-24T14:40:01.237Z,12.6
2017-04-24T14:45:02.152Z,12.6
2017-04-24T14:50:01.525Z,12.5
2017-04-24T14:55:01.441Z,12
2017-04-24T15:00:01.729Z,11.7
2017-04-24T15:05:01.247Z,11.6
2017-04-24T15:10:01.718Z,11.2
2017-04-24T15:15:01.777Z,10.9
2017-04-24T15:20:01.877Z,10.8
2017-04-24T15:25:01.835Z,10.6
2017-04-24T15:30:02.073Z,10.6
2017-04-24T15:35:01.475Z,10.4
2017-04-24T15:40:01.247Z,10.4
2017-04-24T15:45:01.957Z,10.4
2017-04-24T15:50:01.440Z,10.3
2017-04-24T15:55:02.042Z,10.4
2017-04-24T16:00:01.307Z,10.3
2017-04-24T16:05:01.260Z,10.3
2017-04-24T16:10:02.104Z,10.3
2017-04-24T16:15:01.438Z,10.3
2017-04-24T16:20:02.162Z,10.3
2017-04-24T16:25:01.594Z,10.3
2017-04-24T16:30:01.850Z,10.3
2017-04-24T16:35:01.235Z,10.4
2017-04-24T16:40:01.921Z,10.4
2017-04-24T16:45:01.431Z,10.2
2017-04-24T16:50:01.230Z,10.3
2017-04-24T16:55:01.242Z,10.3
2017-04-24T17:00:01.512Z,10.3
2017-04-24T17:05:01.715Z,10.3
2017-04-24T17:10:01.737Z,10.3
2017-04-24T17:15:01.894Z,10.3
2017-04-24T17:20:01.894Z,10.3
2017-04-24T17:25:01.439Z,10.3
2017-04-24T17:30:01.731Z,10.2
2017-04-24T17:35:01.190Z,10.2
2017-04-24T17:40:01.960Z,10.2
2017-04-24T17:45:01.382Z,10.2
2017-04-24T17:50:01.844Z,10.3
2017-04-24T17:55:01.709Z,10.3
2017-04-24T18:00:01.906Z,10.2
2017-04-24T18:05:01.799Z,10.2
2017-04-24T18:10:01.634Z,10.2
2017-04-24T18:15:01.970Z,10.2
2017-04-24T18:20:01.801Z,10.2
2017-04-24T18:25:01.356Z,10.2
2017-04-24T18:30:01.862Z,10.2
2017-04-24T18:35:02.280Z,10.1
2017-04-24T18:40:01.431Z,10.1
2017-04-24T18:45:02.113Z,10
2017-04-24T18:50:02.063Z,10
2017-04-24T18:55:02.153Z,10
2017-04-24T19:00:01.440Z,9.9
2017-04-24T19:05:01.721Z,9.8
2017-04-24T19:10:01.559Z,9.8
2017-04-24T19:15:01.296Z,9.8
2017-04-24T19:20:01.213Z,9.8
2017-04-24T19:25:02.102Z,9.8
2017-04-24T19:30:01.422Z,9.8
2017-04-24T19:35:01.621Z,9.6
2017-04-24T19:40:01.425Z,9.6
2017-04-24T19:45:02.044Z,9.6
2017-04-24T19:50:01.632Z,9.6
2017-04-24T19:55:01.356Z,9.6
2017-04-24T20:00:01.330Z,9.6
2017-04-24T20:05:01.264Z,9.6
2017-04-24T20:10:01.523Z,9.6
2017-04-24T20:15:01.314Z,9.6
2017-04-24T20:20:02.056Z,9.5
2017-04-24T20:25:01.735Z,9.5
2017-04-24T20:30:02.043Z,9.5
2017-04-24T20:35:01.914Z,9.5
2017-04-24T20:40:01.720Z,9.5
2017-04-24T20:45:02.163Z,9.5
2017-04-24T20:50:01.712Z,9.5
2017-04-24T20:55:01.771Z,9.4
2017-04-24T21:00:02.045Z,9.4
2017-04-24T21:05:01.974Z,9.4
2017-04-24T21:10:01.806Z,9.5
2017-04-24T21:15:01.826Z,9.4
2017-04-24T21:20:02.151Z,9.4
2017-04-24T21:25:01.714Z,9.4
2017-04-24T21:30:01.455Z,9.4
2017-04-24T21:35:01.453Z,9.4
2017-04-24T21:40:01.897Z,9.4
2017-04-24T21:45:01.433Z,9.4
2017-04-24T21:50:02.150Z,9.4
2017-04-24T21:55:01.767Z,9.4
2017-04-24T22:00:02.042Z,9.4
2017-04-24T22:05:01.884Z,9.4
2017-04-24T22:10:01.488Z,9.4
2017-04-24T22:15:01.647Z,9.3
2017-04-24T22:20:01.322Z,9.3
2017-04-24T22:25:02.006Z,9.3
2017-04-24T22:30:02.021Z,9.4
2017-04-24T22:35:01.222Z,9.4
2017-04-24T22:40:02.021Z,9.3
2017-04-24T22:45:02.154Z,9.3
2017-04-24T22:50:01.963Z,9.3
2017-04-24T22:55:01.793Z,9.2
2017-04-24T23:00:01.730Z,9.2
2017-04-24T23:05:01.501Z,9.2
2017-04-24T23:10:01.304Z,9.2
2017-04-24T23:15:02.169Z,9.2
2017-04-24T23:20:01.857Z,9.2
2017-04-24T23:25:01.731Z,9.2
2017-04-24T23:30:01.680Z,9.2
2017-04-24T23:35:01.298Z,9.2
2017-04-24T23:40:02.126Z,9.1
2017-04-24T23:45:02.046Z,9.2
2017-04-24T23:50:01.604Z,9.2
2017-04-24T23:55:01.382Z,9.1
